Time;durP1;ratioP1;P1;durP2;ratioP2;P2;SDS_P1;SDS_P2;PMS_P1;PMS_P2;Temp;Humidity;BMP_temperature;BMP_pressure;BME280_temperature;BME280_humidity;BME280_pressure;Samples;Min_cycle;Max_cycle;Signal;HPM_P1;HPM_P2
2022/11/27 00:01:34;;;;;;;;;;;;;;;;;;4959704;29;19954;-82
2022/11/27 00:03:59;;;;;;;;;;;;;;;;;;4948226;29;19926;-81
2022/11/27 00:06:25;;;;;;;;;;;;;;;;;;4948268;29;19915;-82
2022/11/27 00:08:50;;;;;;;;;;;;;;;;;;4948938;29;19919;-81
2022/11/27 00:11:16;;;;;;;;;;;;;;;;;;4950748;29;19914;-82
2022/11/27 00:13:41;;;;;;;;;;;;;;;;;;4952216;29;19914;-82
2022/11/27 00:16:06;;;;;;;;;;;;;;;;;;4952980;29;19915;-82
2022/11/27 00:18:32;;;;;;;;;;;;;;;;;;4934580;29;20279;-82
2022/11/27 00:20:57;;;;;;;;;;;;;;;;;;4966317;29;19915;-83
2022/11/27 00:23:23;;;;;;;;;;;;;;;;;;4951186;29;19919;-82
2022/11/27 00:25:48;;;;;;;;;;;;;;;;;;4948734;29;20282;-81
2022/11/27 00:28:14;;;;;;;;;;;;;;;;;;4933006;29;20384;-81
2022/11/27 00:30:41;;;;;;;;;;;;;;;;;;4950763;29;20196;-83
2022/11/27 00:33:07;;;;;;;;;;;;;;;;;;4953612;29;19915;-80
2022/11/27 00:35:32;;;;;;;;;;;;;;;;;;4974193;29;19910;-82
2022/11/27 00:37:58;;;;;;;;;;;;;;;;;;4973227;29;19916;-82
2022/11/27 00:40:23;;;;;;;;;;;;;;;;;;4971854;29;19925;-82
2022/11/27 00:42:49;;;;;;;;;;;;;;;;;;4972121;29;19914;-82
2022/11/27 00:45:14;;;;;;;;;;;;;;;;;;4967846;29;19902;-82
2022/11/27 00:47:40;;;;;;;;;;;;;;;;;;4976288;28;19926;-83
2022/11/27 00:50:05;;;;;;;;;;;;;;;;;;4964575;29;19938;-83
2022/11/27 00:52:35;;;;;;;;;;;;;;;;;;4947241;29;19942;-82
2022/11/27 00:55:01;;;;;;;;;;;;;;;;;;4963992;29;19922;-84
2022/11/27 00:57:27;;;;;;;;;;;;;;;;;;4964988;29;20014;-83
2022/11/27 00:59:53;;;;;;;;;;;;;;;;;;4949783;29;19902;-85
2022/11/27 01:02:19;;;;;;;;;;;;;;;;;;4959231;29;20575;-83
2022/11/27 01:04:45;;;;;;;;;;;;;;;;;;4947171;29;19954;-84
2022/11/27 01:07:11;;;;;;;;;;;;;;;;;;4996969;28;19933;-83
2022/11/27 01:09:37;;;;;;;;;;;;;;;;;;4981429;29;19942;-84
2022/11/27 01:12:03;;;;;;;;;;;;;;;;;;4981421;28;19903;-82
2022/11/27 01:14:32;;;;;;;;;;;;;;;;;;4981417;28;19959;-83
2022/11/27 01:16:58;;;;;;;;;;;;;;;;;;4975611;29;19942;-82
2022/11/27 01:19:26;;;;;;;;;;;;;;;;;;4958508;29;19973;-82
2022/11/27 01:21:54;;;;;;;;;;;;;;;;;;4960645;29;19915;-84
2022/11/27 01:24:20;;;;;;;;;;;;;;;;;;4995206;28;19918;-83
2022/11/27 01:26:48;;;;;;;;;;;;;;;;;;4963496;28;19923;-83
2022/11/27 01:29:14;;;;;;;;;;;;;;;;;;4964272;29;19938;-84
2022/11/27 01:31:42;;;;;;;;;;;;;;;;;;4949966;29;19918;-83
2022/11/27 01:34:09;;;;;;;;;;;;;;;;;;4965873;28;19919;-83
2022/11/27 01:36:35;;;;;;;;;;;;;;;;;;4998125;28;19903;-83
2022/11/27 01:39:01;;;;;;;;;;;;;;;;;;4981952;28;19973;-82
2022/11/27 01:41:27;;;;;;;;;;;;;;;;;;4979822;28;19946;-83
2022/11/27 01:43:56;;;;;;;;;;;;;;;;;;4963938;28;20017;-84
2022/11/27 01:46:24;;;;;;;;;;;;;;;;;;4963484;29;19903;-82
2022/11/27 01:48:52;;;;;;;;;;;;;;;;;;4995515;28;19899;-83
2022/11/27 01:51:18;;;;;;;;;;;;;;;;;;4980727;28;19915;-84
2022/11/27 01:53:44;;;;;;;;;;;;;;;;;;4948425;28;19968;-83
2022/11/27 01:56:10;;;;;;;;;;;;;;;;;;4980544;28;19930;-83
2022/11/27 01:58:35;;;;;;;;;;;;;;;;;;4977232;28;19919;-83
2022/11/27 02:01:04;;;;;;;;;;;;;;;;;;4993063;28;19923;-82
2022/11/27 02:03:30;;;;;;;;;;;;;;;;;;4960921;28;19922;-83
2022/11/27 02:05:56;;;;;;;;;;;;;;;;;;4962128;28;19903;-83
2022/11/27 02:08:21;;;;;;;;;;;;;;;;;;4969983;23;19926;-87
2022/11/27 02:10:47;;;;;;;;;;;;;;;;;;4956789;29;19926;-81
2022/11/27 02:13:13;;;;;;;;;;;;;;;;;;4957056;29;19919;-82
2022/11/27 02:15:38;;;;;;;;;;;;;;;;;;4941492;29;19978;-81
2022/11/27 02:18:03;;;;;;;;;;;;;;;;;;4939824;29;19920;-80
2022/11/27 02:20:29;;;;;;;;;;;;;;;;;;4937124;29;19918;-82
2022/11/27 02:22:54;;;;;;;;;;;;;;;;;;4937699;29;19939;-83
2022/11/27 02:25:20;;;;;;;;;;;;;;;;;;4921525;29;20319;-84
2022/11/27 02:27:45;;;;;;;;;;;;;;;;;;4923694;29;19915;-83
2022/11/27 02:30:11;;;;;;;;;;;;;;;;;;4906537;29;19915;-86
2022/11/27 02:32:36;;;;;;;;;;;;;;;;;;4921112;29;19957;-84
2022/11/27 02:35:01;;;;;;;;;;;;;;;;;;4893823;29;20386;-89
2022/11/27 02:37:27;;;;;;;;;;;;;;;;;;4919161;29;19978;-85
2022/11/27 02:39:52;;;;;;;;;;;;;;;;;;4918580;29;19919;-80
2022/11/27 02:42:18;;;;;;;;;;;;;;;;;;4942837;29;20356;-81
2022/11/27 02:44:43;;;;;;;;;;;;;;;;;;4920703;29;20410;-81
2022/11/27 02:47:09;;;;;;;;;;;;;;;;;;4920542;29;20023;-83
2022/11/27 02:49:34;;;;;;;;;;;;;;;;;;4934701;29;19915;-82
2022/11/27 02:51:59;;;;;;;;;;;;;;;;;;4920608;29;19919;-82
2022/11/27 02:54:25;;;;;;;;;;;;;;;;;;4922288;29;19923;-82
2022/11/27 02:56:50;;;;;;;;;;;;;;;;;;4921357;29;19911;-81
2022/11/27 02:59:16;;;;;;;;;;;;;;;;;;4934339;29;19919;-81
2022/11/27 03:01:42;;;;;;;;;;;;;;;;;;4934754;29;20375;-84
2022/11/27 03:04:07;;;;;;;;;;;;;;;;;;4934904;29;19915;-81
2022/11/27 03:06:32;;;;;;;;;;;;;;;;;;4924371;29;19919;-80
2022/11/27 03:08:58;;;;;;;;;;;;;;;;;;4936914;29;20550;-80
2022/11/27 03:11:24;;;;;;;;;;;;;;;;;;4937292;29;20426;-85
2022/11/27 03:13:49;;;;;;;;;;;;;;;;;;4937028;29;20382;-79
2022/11/27 03:16:14;;;;;;;;;;;;;;;;;;4924794;29;19915;-80
2022/11/27 03:18:40;;;;;;;;;;;;;;;;;;4939375;29;19962;-81
2022/11/27 03:21:05;;;;;;;;;;;;;;;;;;4939569;29;19998;-81
2022/11/27 03:23:31;;;;;;;;;;;;;;;;;;4922819;29;20298;-81
2022/11/27 03:25:56;;;;;;;;;;;;;;;;;;4921075;29;19915;-80
2022/11/27 03:28:22;;;;;;;;;;;;;;;;;;4921101;29;20264;-81
2022/11/27 03:30:47;;;;;;;;;;;;;;;;;;4934293;29;20290;-83
2022/11/27 03:33:13;;;;;;;;;;;;;;;;;;4901703;29;19938;-83
2022/11/27 03:35:38;;;;;;;;;;;;;;;;;;4918356;29;20323;-83
2022/11/27 03:38:04;;;;;;;;;;;;;;;;;;4917708;29;19915;-82
2022/11/27 03:40:29;;;;;;;;;;;;;;;;;;4923251;29;19919;-82
2022/11/27 03:42:55;;;;;;;;;;;;;;;;;;4937292;29;19922;-80
2022/11/27 03:45:20;;;;;;;;;;;;;;;;;;4919777;29;19921;-80
2022/11/27 03:47:46;;;;;;;;;;;;;;;;;;4935556;29;19918;-79
2022/11/27 03:50:11;;;;;;;;;;;;;;;;;;4919914;29;20013;-80
2022/11/27 03:52:37;;;;;;;;;;;;;;;;;;4936439;29;19919;-79
2022/11/27 03:55:02;;;;;;;;;;;;;;;;;;4919882;29;19922;-80
2022/11/27 03:57:27;;;;;;;;;;;;;;;;;;4928434;29;19916;-82
2022/11/27 03:59:53;;;;;;;;;;;;;;;;;;4915894;29;19923;-79
2022/11/27 04:02:18;;;;;;;;;;;;;;;;;;4932106;29;20006;-79
2022/11/27 04:04:44;;;;;;;;;;;;;;;;;;4916273;29;20290;-79
2022/11/27 04:07:09;;;;;;;;;;;;;;;;;;4916230;29;19967;-80
2022/11/27 04:09:35;;;;;;;;;;;;;;;;;;4899961;29;20302;-79
2022/11/27 04:12:00;;;;;;;;;;;;;;;;;;4900498;29;19919;-79
2022/11/27 04:14:25;;;;;;;;;;;;;;;;;;4927298;29;19963;-79
2022/11/27 04:16:51;;;;;;;;;;;;;;;;;;4917777;29;19922;-79
2022/11/27 04:19:16;;;;;;;;;;;;;;;;;;4917813;29;19931;-84
2022/11/27 04:21:42;;;;;;;;;;;;;;;;;;4916407;29;19915;-81
2022/11/27 04:24:07;;;;;;;;;;;;;;;;;;4916507;29;19911;-81
2022/11/27 04:26:33;;;;;;;;;;;;;;;;;;4915961;29;19919;-79
2022/11/27 04:28:58;;;;;;;;;;;;;;;;;;4916855;29;19915;-80
2022/11/27 04:31:24;;;;;;;;;;;;;;;;;;4916870;29;19922;-79
2022/11/27 04:33:49;;;;;;;;;;;;;;;;;;4915769;29;19915;-80
2022/11/27 04:36:14;;;;;;;;;;;;;;;;;;4916071;29;19919;-79
2022/11/27 04:38:40;;;;;;;;;;;;;;;;;;4915735;29;19911;-81
2022/11/27 04:41:05;;;;;;;;;;;;;;;;;;4915638;29;19915;-80
2022/11/27 04:43:31;;;;;;;;;;;;;;;;;;4915192;29;19915;-81
2022/11/27 04:45:56;;;;;;;;;;;;;;;;;;4915823;29;20006;-80
2022/11/27 04:48:22;;;;;;;;;;;;;;;;;;4929053;29;19914;-79
2022/11/27 04:50:47;;;;;;;;;;;;;;;;;;4936330;29;20397;-81
2022/11/27 04:53:13;;;;;;;;;;;;;;;;;;4933960;29;19919;-82
2022/11/27 04:55:38;;;;;;;;;;;;;;;;;;4936270;29;19919;-80
2022/11/27 04:58:04;;;;;;;;;;;;;;;;;;4920100;29;20294;-79
2022/11/27 05:00:29;;;;;;;;;;;;;;;;;;4936106;29;19970;-80
2022/11/27 05:02:55;;;;;;;;;;;;;;;;;;4919737;29;19984;-81
2022/11/27 05:05:20;;;;;;;;;;;;;;;;;;4930569;29;19962;-80
2022/11/27 05:07:45;;;;;;;;;;;;;;;;;;4931768;29;19922;-82
2022/11/27 05:10:11;;;;;;;;;;;;;;;;;;4916668;29;20328;-83
2022/11/27 05:12:36;;;;;;;;;;;;;;;;;;4917620;29;20415;-81
2022/11/27 05:15:02;;;;;;;;;;;;;;;;;;4932538;29;20409;-80
2022/11/27 05:17:27;;;;;;;;;;;;;;;;;;4916760;29;20248;-80
2022/11/27 05:19:53;;;;;;;;;;;;;;;;;;4916171;29;19923;-80
2022/11/27 05:22:18;;;;;;;;;;;;;;;;;;4918880;29;19923;-81
2022/11/27 05:24:44;;;;;;;;;;;;;;;;;;4936177;29;20282;-80
2022/11/27 05:27:09;;;;;;;;;;;;;;;;;;4921002;29;20275;-83
2022/11/27 05:29:34;;;;;;;;;;;;;;;;;;4935176;29;19919;-81
2022/11/27 05:32:00;;;;;;;;;;;;;;;;;;4936401;29;20272;-81
2022/11/27 05:34:25;;;;;;;;;;;;;;;;;;4943754;29;19915;-81
2022/11/27 05:36:51;;;;;;;;;;;;;;;;;;4922339;29;19925;-81
2022/11/27 05:39:16;;;;;;;;;;;;;;;;;;4934896;29;19959;-80
2022/11/27 05:41:42;;;;;;;;;;;;;;;;;;4918950;29;19954;-81
2022/11/27 05:44:07;;;;;;;;;;;;;;;;;;4902842;29;20001;-79
2022/11/27 05:46:33;;;;;;;;;;;;;;;;;;4920311;29;19974;-79
2022/11/27 05:48:58;;;;;;;;;;;;;;;;;;4918500;29;19971;-80
2022/11/27 05:51:24;;;;;;;;;;;;;;;;;;4919588;29;20259;-80
2022/11/27 05:53:49;;;;;;;;;;;;;;;;;;4918115;29;19912;-80
2022/11/27 05:56:14;;;;;;;;;;;;;;;;;;4936503;29;19915;-80
2022/11/27 05:58:40;;;;;;;;;;;;;;;;;;4938685;29;19917;-80
2022/11/27 06:01:05;;;;;;;;;;;;;;;;;;4938287;29;19926;-80
2022/11/27 06:03:31;;;;;;;;;;;;;;;;;;4938038;29;19918;-81
2022/11/27 06:05:56;;;;;;;;;;;;;;;;;;4938217;29;20295;-81
2022/11/27 06:08:22;;;;;;;;;;;;;;;;;;4921266;29;20050;-80
2022/11/27 06:10:47;;;;;;;;;;;;;;;;;;4936749;29;19921;-79
2022/11/27 06:13:13;;;;;;;;;;;;;;;;;;4933662;29;19926;-81
2022/11/27 06:15:38;;;;;;;;;;;;;;;;;;4933645;29;20405;-80
2022/11/27 06:18:04;;;;;;;;;;;;;;;;;;4934335;29;19915;-79
2022/11/27 06:20:29;;;;;;;;;;;;;;;;;;4920439;29;20597;-80
2022/11/27 06:22:55;;;;;;;;;;;;;;;;;;4937510;29;19923;-80
2022/11/27 06:25:20;;;;;;;;;;;;;;;;;;4907765;29;19915;-79
2022/11/27 06:27:45;;;;;;;;;;;;;;;;;;4939599;29;20521;-83
2022/11/27 06:30:11;;;;;;;;;;;;;;;;;;4940710;29;20303;-81
2022/11/27 06:32:36;;;;;;;;;;;;;;;;;;4923570;29;19926;-82
2022/11/27 06:35:02;;;;;;;;;;;;;;;;;;4923392;29;19921;-86
2022/11/27 06:37:27;;;;;;;;;;;;;;;;;;4920127;29;19918;-79
2022/11/27 06:39:53;;;;;;;;;;;;;;;;;;4934421;29;19963;-79
2022/11/27 06:42:18;;;;;;;;;;;;;;;;;;4919812;29;19939;-79
2022/11/27 06:44:43;;;;;;;;;;;;;;;;;;4921742;29;20359;-80
2022/11/27 06:47:09;;;;;;;;;;;;;;;;;;4939892;29;19914;-79
2022/11/27 06:49:34;;;;;;;;;;;;;;;;;;4940128;29;20009;-79
2022/11/27 06:52:00;;;;;;;;;;;;;;;;;;4939119;29;19921;-79
2022/11/27 06:54:25;;;;;;;;;;;;;;;;;;4940069;29;20465;-80
2022/11/27 06:56:51;;;;;;;;;;;;;;;;;;4938536;29;19938;-80
2022/11/27 06:59:16;;;;;;;;;;;;;;;;;;4936253;29;19919;-79
2022/11/27 07:01:41;;;;;;;;;;;;;;;;;;4937625;29;20298;-80
2022/11/27 07:04:07;;;;;;;;;;;;;;;;;;4917636;29;20368;-79
2022/11/27 07:06:32;;;;;;;;;;;;;;;;;;4918600;29;19919;-82
2022/11/27 07:08:58;;;;;;;;;;;;;;;;;;4916936;29;19919;-79
2022/11/27 07:11:23;;;;;;;;;;;;;;;;;;4918297;29;20088;-79
2022/11/27 07:13:49;;;;;;;;;;;;;;;;;;4916936;29;19911;-79
2022/11/27 07:16:14;;;;;;;;;;;;;;;;;;4916960;29;19915;-81
2022/11/27 07:18:40;;;;;;;;;;;;;;;;;;4932609;29;19967;-79
2022/11/27 07:21:08;;;;;;;;;;;;;;;;;;4933019;29;19915;-79
2022/11/27 07:23:34;;;;;;;;;;;;;;;;;;4917558;29;19919;-80
2022/11/27 07:25:59;;;;;;;;;;;;;;;;;;4919438;29;19922;-79
2022/11/27 07:28:25;;;;;;;;;;;;;;;;;;4918899;29;20383;-79
2022/11/27 07:30:50;;;;;;;;;;;;;;;;;;4934967;29;20405;-81
2022/11/27 07:33:16;;;;;;;;;;;;;;;;;;4918930;29;19922;-79
2022/11/27 07:35:41;;;;;;;;;;;;;;;;;;4918709;29;19971;-79
2022/11/27 07:38:07;;;;;;;;;;;;;;;;;;4919577;29;20343;-79
2022/11/27 07:40:32;;;;;;;;;;;;;;;;;;4932748;29;19927;-79
2022/11/27 07:42:58;;;;;;;;;;;;;;;;;;4900394;29;19955;-81
2022/11/27 07:45:23;;;;;;;;;;;;;;;;;;4918323;29;19919;-80
2022/11/27 07:47:49;;;;;;;;;;;;;;;;;;4917723;29;19939;-80
2022/11/27 07:50:14;;;;;;;;;;;;;;;;;;4917769;29;20290;-85
2022/11/27 07:52:40;;;;;;;;;;;;;;;;;;4900811;29;20102;-80
2022/11/27 07:55:05;;;;;;;;;;;;;;;;;;4932243;29;19998;-79
2022/11/27 07:57:31;;;;;;;;;;;;;;;;;;4915572;29;19962;-80
2022/11/27 07:59:56;;;;;;;;;;;;;;;;;;4931982;29;19919;-79
2022/11/27 08:02:22;;;;;;;;;;;;;;;;;;4931576;29;19922;-80
2022/11/27 08:04:48;;;;;;;;;;;;;;;;;;4917829;29;19915;-80
2022/11/27 08:07:13;;;;;;;;;;;;;;;;;;4918849;29;20299;-80
2022/11/27 08:09:38;;;;;;;;;;;;;;;;;;4944446;23;19978;-79
2022/11/27 08:12:04;;;;;;;;;;;;;;;;;;4947280;29;19914;-80
2022/11/27 08:14:29;;;;;;;;;;;;;;;;;;4934372;29;19914;-79
2022/11/27 08:16:55;;;;;;;;;;;;;;;;;;4963456;29;19945;-79
2022/11/27 08:19:20;;;;;;;;;;;;;;;;;;4957971;29;20179;-79
2022/11/27 08:21:45;;;;;;;;;;;;;;;;;;4957069;29;19921;-79
2022/11/27 08:24:11;;;;;;;;;;;;;;;;;;4956589;29;19911;-80
2022/11/27 08:26:36;;;;;;;;;;;;;;;;;;4957403;29;20044;-80
2022/11/27 08:29:02;;;;;;;;;;;;;;;;;;4924548;29;19918;-79
2022/11/27 08:31:27;;;;;;;;;;;;;;;;;;4957157;29;19925;-80
2022/11/27 08:33:52;;;;;;;;;;;;;;;;;;4955577;29;19925;-80
2022/11/27 08:36:18;;;;;;;;;;;;;;;;;;4957511;29;20267;-79
2022/11/27 08:38:43;;;;;;;;;;;;;;;;;;4955861;29;19911;-79
2022/11/27 08:41:08;;;;;;;;;;;;;;;;;;4949006;29;19939;-79
2022/11/27 08:43:34;;;;;;;;;;;;;;;;;;4937949;29;20303;-79
2022/11/27 08:45:59;;;;;;;;;;;;;;;;;;4941114;29;20005;-79
2022/11/27 08:48:25;;;;;;;;;;;;;;;;;;4942428;29;19922;-80
2022/11/27 08:50:50;;;;;;;;;;;;;;;;;;4944538;29;19922;-79
2022/11/27 08:53:15;;;;;;;;;;;;;;;;;;4944664;29;19915;-79
2022/11/27 08:55:41;;;;;;;;;;;;;;;;;;4943010;29;20445;-79
2022/11/27 08:58:06;;;;;;;;;;;;;;;;;;4944279;29;19943;-79
2022/11/27 09:00:31;;;;;;;;;;;;;;;;;;4943035;29;20024;-79
2022/11/27 09:02:57;;;;;;;;;;;;;;;;;;4940393;29;19961;-79
2022/11/27 09:05:23;;;;;;;;;;;;;;;;;;4939332;29;20378;-79
2022/11/27 09:07:48;;;;;;;;;;;;;;;;;;4938656;29;19914;-78
2022/11/27 09:10:13;;;;;;;;;;;;;;;;;;4957148;29;19926;-79
2022/11/27 09:12:39;;;;;;;;;;;;;;;;;;4942648;29;20349;-79
2022/11/27 09:15:05;;;;;;;;;;;;;;;;;;4952937;29;19920;-79
2022/11/27 09:17:30;;;;;;;;;;;;;;;;;;4962002;29;19937;-79
2022/11/27 09:19:55;;;;;;;;;;;;;;;;;;4959851;29;20005;-79
2022/11/27 09:22:21;;;;;;;;;;;;;;;;;;4938583;29;19966;-79
2022/11/27 09:24:46;;;;;;;;;;;;;;;;;;4955312;29;19926;-79
2022/11/27 09:27:12;;;;;;;;;;;;;;;;;;4957864;29;19915;-79
2022/11/27 09:29:37;;;;;;;;;;;;;;;;;;4942793;29;20310;-78
2022/11/27 09:32:02;;;;;;;;;;;;;;;;;;4938807;29;19966;-79
2022/11/27 09:34:28;;;;;;;;;;;;;;;;;;4937239;29;19915;-79
2022/11/27 09:36:53;;;;;;;;;;;;;;;;;;4929761;29;19914;-79
2022/11/27 09:39:19;;;;;;;;;;;;;;;;;;4941074;29;20390;-79
2022/11/27 09:41:44;;;;;;;;;;;;;;;;;;4958518;29;19921;-79
2022/11/27 09:44:09;;;;;;;;;;;;;;;;;;4963445;28;19914;-78
2022/11/27 09:46:35;;;;;;;;;;;;;;;;;;4960945;29;20441;-79
2022/11/27 09:49:00;;;;;;;;;;;;;;;;;;4957930;29;20370;-79
2022/11/27 09:51:26;;;;;;;;;;;;;;;;;;4941430;29;19926;-79
2022/11/27 09:53:51;;;;;;;;;;;;;;;;;;4957858;29;20441;-79
2022/11/27 09:56:16;;;;;;;;;;;;;;;;;;4956747;29;19990;-79
2022/11/27 09:58:42;;;;;;;;;;;;;;;;;;4957105;29;20099;-78
2022/11/27 10:01:07;;;;;;;;;;;;;;;;;;4958653;29;19922;-80
2022/11/27 10:03:33;;;;;;;;;;;;;;;;;;4957580;29;19918;-79
2022/11/27 10:05:58;;;;;;;;;;;;;;;;;;4959706;29;19914;-79
2022/11/27 10:08:23;;;;;;;;;;;;;;;;;;4960071;29;19918;-80
2022/11/27 10:10:49;;;;;;;;;;;;;;;;;;4960210;29;19918;-79
2022/11/27 10:13:14;;;;;;;;;;;;;;;;;;4960699;29;19915;-81
2022/11/27 10:15:40;;;;;;;;;;;;;;;;;;4963662;29;19981;-80
2022/11/27 10:18:05;;;;;;;;;;;;;;;;;;4961541;29;19915;-79
2022/11/27 10:20:31;;;;;;;;;;;;;;;;;;4959269;28;20115;-80
2022/11/27 10:22:56;;;;;;;;;;;;;;;;;;4959589;28;19919;-79
2022/11/27 10:25:21;;;;;;;;;;;;;;;;;;4960011;29;19921;-79
2022/11/27 10:27:47;;;;;;;;;;;;;;;;;;4960782;29;19922;-80
2022/11/27 10:30:12;;;;;;;;;;;;;;;;;;4961049;29;19910;-80
2022/11/27 10:32:38;;;;;;;;;;;;;;;;;;4961017;29;19921;-80
2022/11/27 10:35:03;;;;;;;;;;;;;;;;;;4961796;29;19915;-79
2022/11/27 10:37:29;;;;;;;;;;;;;;;;;;4961796;29;19914;-80
2022/11/27 10:39:54;;;;;;;;;;;;;;;;;;4949283;29;20014;-80
2022/11/27 10:42:20;;;;;;;;;;;;;;;;;;4940411;29;19914;-80
2022/11/27 10:44:45;;;;;;;;;;;;;;;;;;4940931;29;19922;-80
2022/11/27 10:47:10;;;;;;;;;;;;;;;;;;4956845;29;20421;-80
2022/11/27 10:49:36;;;;;;;;;;;;;;;;;;4940130;29;19974;-80
2022/11/27 10:52:01;;;;;;;;;;;;;;;;;;4956277;29;19915;-80
2022/11/27 10:54:27;;;;;;;;;;;;;;;;;;4942292;29;20413;-80
2022/11/27 10:56:52;;;;;;;;;;;;;;;;;;4943952;29;19932;-80
2022/11/27 10:59:17;;;;;;;;;;;;;;;;;;4960725;28;19972;-80
2022/11/27 11:01:43;;;;;;;;;;;;;;;;;;4959856;29;19918;-80
2022/11/27 11:04:08;;;;;;;;;;;;;;;;;;4959698;29;19993;-80
2022/11/27 11:06:34;;;;;;;;;;;;;;;;;;4960907;29;20457;-80
2022/11/27 11:08:59;;;;;;;;;;;;;;;;;;4960736;28;19921;-80
2022/11/27 11:11:25;;;;;;;;;;;;;;;;;;4962901;28;19949;-80
2022/11/27 11:13:50;;;;;;;;;;;;;;;;;;4963674;29;20645;-82
2022/11/27 11:16:16;;;;;;;;;;;;;;;;;;4972322;28;19989;-82
2022/11/27 11:18:42;;;;;;;;;;;;;;;;;;4970272;29;19911;-81
2022/11/27 11:21:07;;;;;;;;;;;;;;;;;;4975646;29;19926;-82
2022/11/27 11:23:33;;;;;;;;;;;;;;;;;;4971105;29;19917;-81
2022/11/27 11:25:58;;;;;;;;;;;;;;;;;;4951583;29;19921;-81
2022/11/27 11:28:23;;;;;;;;;;;;;;;;;;4969035;28;19954;-81
2022/11/27 11:30:49;;;;;;;;;;;;;;;;;;4975240;28;19914;-82
2022/11/27 11:33:14;;;;;;;;;;;;;;;;;;4958401;29;19922;-80
2022/11/27 11:35:40;;;;;;;;;;;;;;;;;;4971790;29;19938;-82
2022/11/27 11:38:06;;;;;;;;;;;;;;;;;;4935996;29;20005;-81
2022/11/27 11:40:32;;;;;;;;;;;;;;;;;;4950009;29;19919;-80
2022/11/27 11:42:57;;;;;;;;;;;;;;;;;;4944796;29;19911;-81
2022/11/27 11:45:23;;;;;;;;;;;;;;;;;;4943048;29;20010;-82
2022/11/27 11:47:48;;;;;;;;;;;;;;;;;;4961563;29;19942;-82
2022/11/27 11:50:14;;;;;;;;;;;;;;;;;;4968183;29;19980;-81
2022/11/27 11:52:39;;;;;;;;;;;;;;;;;;4934540;29;19915;-82
2022/11/27 11:55:05;;;;;;;;;;;;;;;;;;4946492;29;19921;-81
2022/11/27 11:57:30;;;;;;;;;;;;;;;;;;4941808;29;19954;-82
2022/11/27 11:59:55;;;;;;;;;;;;;;;;;;4941654;29;19918;-82
2022/11/27 12:02:21;;;;;;;;;;;;;;;;;;4941459;29;19974;-82
2022/11/27 12:04:46;;;;;;;;;;;;;;;;;;4955875;29;19925;-82
2022/11/27 12:07:12;;;;;;;;;;;;;;;;;;4955526;29;19914;-82
2022/11/27 12:09:40;;;;;;;;;;;;;;;;;;4954733;29;19957;-82
2022/11/27 12:12:06;;;;;;;;;;;;;;;;;;4970405;29;19921;-82
2022/11/27 12:14:32;;;;;;;;;;;;;;;;;;4968752;29;19915;-81
2022/11/27 12:17:00;;;;;;;;;;;;;;;;;;4951589;29;19906;-82
2022/11/27 12:19:25;;;;;;;;;;;;;;;;;;4949619;29;19942;-81
2022/11/27 12:21:51;;;;;;;;;;;;;;;;;;4935448;29;19919;-81
2022/11/27 12:24:16;;;;;;;;;;;;;;;;;;4964118;29;19919;-82
2022/11/27 12:26:42;;;;;;;;;;;;;;;;;;4947815;29;19921;-81
2022/11/27 12:29:07;;;;;;;;;;;;;;;;;;4948070;29;19917;-81
2022/11/27 12:31:32;;;;;;;;;;;;;;;;;;4952280;29;19988;-82
2022/11/27 12:33:58;;;;;;;;;;;;;;;;;;4949709;29;19922;-82
2022/11/27 12:36:23;;;;;;;;;;;;;;;;;;4948594;29;19922;-82
2022/11/27 12:38:49;;;;;;;;;;;;;;;;;;4938123;29;20394;-85
2022/11/27 12:41:14;;;;;;;;;;;;;;;;;;4934322;29;20449;-83
2022/11/27 12:43:39;;;;;;;;;;;;;;;;;;4935796;29;19988;-81
2022/11/27 12:46:05;;;;;;;;;;;;;;;;;;4935210;29;19954;-82
2022/11/27 12:48:30;;;;;;;;;;;;;;;;;;4934995;29;19957;-82
2022/11/27 12:50:56;;;;;;;;;;;;;;;;;;4935311;29;19961;-83
2022/11/27 12:53:21;;;;;;;;;;;;;;;;;;4934814;29;19973;-85
2022/11/27 12:55:47;;;;;;;;;;;;;;;;;;4939032;29;20347;-82
2022/11/27 12:58:12;;;;;;;;;;;;;;;;;;4953099;29;19915;-87
2022/11/27 13:00:37;;;;;;;;;;;;;;;;;;4953949;29;20310;-81
2022/11/27 13:03:03;;;;;;;;;;;;;;;;;;4953495;29;19914;-81
2022/11/27 13:05:28;;;;;;;;;;;;;;;;;;4953998;29;20286;-80
2022/11/27 13:07:53;;;;;;;;;;;;;;;;;;4953998;29;20370;-80
2022/11/27 13:10:20;;;;;;;;;;;;;;;;;;4953780;29;19919;-82
2022/11/27 13:12:45;;;;;;;;;;;;;;;;;;4935485;29;19922;-80
2022/11/27 13:15:11;;;;;;;;;;;;;;;;;;4935025;29;20308;-80
2022/11/27 13:17:37;;;;;;;;;;;;;;;;;;4949892;29;20388;-81
2022/11/27 13:20:02;;;;;;;;;;;;;;;;;;4934959;29;20404;-81
2022/11/27 13:22:27;;;;;;;;;;;;;;;;;;4934953;29;20357;-81
2022/11/27 13:24:53;;;;;;;;;;;;;;;;;;4935002;29;20387;-82
2022/11/27 13:27:18;;;;;;;;;;;;;;;;;;4935216;29;19915;-81
2022/11/27 13:29:44;;;;;;;;;;;;;;;;;;4933748;29;20342;-81
2022/11/27 13:32:09;;;;;;;;;;;;;;;;;;4949565;29;20342;-81
2022/11/27 13:34:34;;;;;;;;;;;;;;;;;;4934539;29;19915;-82
2022/11/27 13:37:00;;;;;;;;;;;;;;;;;;4934659;29;19958;-81
2022/11/27 13:39:25;;;;;;;;;;;;;;;;;;4949475;29;20354;-81
2022/11/27 13:41:51;;;;;;;;;;;;;;;;;;4949493;29;19914;-80
2022/11/27 13:44:16;;;;;;;;;;;;;;;;;;4949783;29;20367;-81
2022/11/27 13:46:42;;;;;;;;;;;;;;;;;;4936975;29;19953;-80
2022/11/27 13:49:07;;;;;;;;;;;;;;;;;;4953823;29;19934;-80
2022/11/27 13:51:32;;;;;;;;;;;;;;;;;;4952600;29;19914;-81
2022/11/27 13:53:58;;;;;;;;;;;;;;;;;;4953150;28;19915;-80
2022/11/27 13:56:23;;;;;;;;;;;;;;;;;;4957520;29;19910;-79
2022/11/27 13:58:49;;;;;;;;;;;;;;;;;;4960630;29;19914;-80
2022/11/27 14:01:14;;;;;;;;;;;;;;;;;;4943153;29;19918;-80
2022/11/27 14:03:39;;;;;;;;;;;;;;;;;;4960165;29;20007;-81
2022/11/27 14:06:05;;;;;;;;;;;;;;;;;;4957388;29;19915;-80
2022/11/27 14:08:30;;;;;;;;;;;;;;;;;;4956323;29;19957;-81
2022/11/27 14:10:56;;;;;;;;;;;;;;;;;;4957983;28;19974;-80
2022/11/27 14:13:21;;;;;;;;;;;;;;;;;;4956454;29;19915;-81
2022/11/27 14:15:47;;;;;;;;;;;;;;;;;;4939596;29;20298;-81
2022/11/27 14:18:13;;;;;;;;;;;;;;;;;;4947400;29;19914;-80
2022/11/27 14:20:38;;;;;;;;;;;;;;;;;;4937179;29;19919;-80
2022/11/27 14:23:03;;;;;;;;;;;;;;;;;;4937192;29;19950;-80
2022/11/27 14:25:32;;;;;;;;;;;;;;;;;;4937795;29;20450;-80
2022/11/27 14:27:59;;;;;;;;;;;;;;;;;;4953538;29;19911;-80
2022/11/27 14:30:24;;;;;;;;;;;;;;;;;;4940809;29;19925;-80
2022/11/27 14:32:50;;;;;;;;;;;;;;;;;;4939858;29;19922;-81
2022/11/27 14:35:15;;;;;;;;;;;;;;;;;;4942845;29;19918;-80
2022/11/27 14:37:43;;;;;;;;;;;;;;;;;;4948475;29;19922;-80
2022/11/27 14:40:09;;;;;;;;;;;;;;;;;;4958046;29;19919;-79
2022/11/27 14:42:34;;;;;;;;;;;;;;;;;;4948477;29;19974;-79
2022/11/27 14:45:00;;;;;;;;;;;;;;;;;;4962277;29;20293;-80
2022/11/27 14:47:25;;;;;;;;;;;;;;;;;;4942166;29;19915;-83
2022/11/27 14:49:50;;;;;;;;;;;;;;;;;;4941972;29;19990;-81
2022/11/27 14:52:16;;;;;;;;;;;;;;;;;;4954028;29;19915;-82
2022/11/27 14:54:43;;;;;;;;;;;;;;;;;;4956728;29;19921;-80
2022/11/27 14:57:08;;;;;;;;;;;;;;;;;;4956295;28;19981;-80
2022/11/27 14:59:34;;;;;;;;;;;;;;;;;;4954793;29;19918;-80
2022/11/27 15:01:59;;;;;;;;;;;;;;;;;;4959141;28;19921;-82
2022/11/27 15:04:25;;;;;;;;;;;;;;;;;;4962106;29;19914;-80
2022/11/27 15:06:50;;;;;;;;;;;;;;;;;;4962803;28;19910;-80
2022/11/27 15:09:15;;;;;;;;;;;;;;;;;;4960227;29;20347;-80
2022/11/27 15:11:41;;;;;;;;;;;;;;;;;;4956414;29;19915;-80
2022/11/27 15:14:06;;;;;;;;;;;;;;;;;;4955661;29;19919;-80
2022/11/27 15:16:32;;;;;;;;;;;;;;;;;;4954480;29;20011;-80
2022/11/27 15:18:57;;;;;;;;;;;;;;;;;;4955566;29;20282;-80
2022/11/27 15:21:26;;;;;;;;;;;;;;;;;;4956404;29;20313;-81
2022/11/27 15:23:51;;;;;;;;;;;;;;;;;;4953714;29;19965;-80
2022/11/27 15:26:17;;;;;;;;;;;;;;;;;;4936356;29;19918;-80
2022/11/27 15:28:42;;;;;;;;;;;;;;;;;;4935320;29;19915;-80
2022/11/27 15:31:07;;;;;;;;;;;;;;;;;;4950902;29;19915;-80
2022/11/27 15:33:33;;;;;;;;;;;;;;;;;;4935610;29;19966;-80
2022/11/27 15:35:58;;;;;;;;;;;;;;;;;;4935980;29;20050;-80
2022/11/27 15:38:24;;;;;;;;;;;;;;;;;;4936263;29;20006;-80
2022/11/27 15:40:49;;;;;;;;;;;;;;;;;;4942227;29;20379;-80
2022/11/27 15:43:14;;;;;;;;;;;;;;;;;;4935891;29;19918;-80
2022/11/27 15:45:40;;;;;;;;;;;;;;;;;;4950794;29;19915;-80
2022/11/27 15:48:05;;;;;;;;;;;;;;;;;;4935090;29;20283;-80
2022/11/27 15:50:34;;;;;;;;;;;;;;;;;;4935027;29;20363;-80
2022/11/27 15:52:59;;;;;;;;;;;;;;;;;;4935259;29;20005;-80
2022/11/27 15:55:25;;;;;;;;;;;;;;;;;;4933780;29;19921;-81
2022/11/27 15:57:50;;;;;;;;;;;;;;;;;;4935630;29;19989;-82
2022/11/27 16:00:15;;;;;;;;;;;;;;;;;;4935696;29;20328;-83
2022/11/27 16:02:41;;;;;;;;;;;;;;;;;;4934896;29;19925;-81
2022/11/27 16:05:06;;;;;;;;;;;;;;;;;;4946559;29;19919;-81
2022/11/27 16:07:31;;;;;;;;;;;;;;;;;;4959285;29;20302;-81
2022/11/27 16:09:57;;;;;;;;;;;;;;;;;;4944547;29;19997;-81
2022/11/27 16:12:22;;;;;;;;;;;;;;;;;;4943217;29;20392;-83
2022/11/27 16:14:48;;;;;;;;;;;;;;;;;;4937333;29;19915;-82
2022/11/27 16:17:13;;;;;;;;;;;;;;;;;;4952981;28;19987;-83
2022/11/27 16:19:39;;;;;;;;;;;;;;;;;;4952740;29;19986;-81
2022/11/27 16:22:05;;;;;;;;;;;;;;;;;;4936261;29;19921;-84
2022/11/27 16:24:30;;;;;;;;;;;;;;;;;;4936479;29;20294;-81
2022/11/27 16:26:56;;;;;;;;;;;;;;;;;;4951333;29;20446;-83
2022/11/27 16:29:22;;;;;;;;;;;;;;;;;;4941798;29;19953;-81
2022/11/27 16:31:47;;;;;;;;;;;;;;;;;;4958473;29;20286;-82
2022/11/27 16:34:13;;;;;;;;;;;;;;;;;;4956792;29;19914;-80